sensor_id;sensor_type;location;lat;lon;timestamp;temperature;humidity
59303;DHT22;45074;52.764;6.896;2023-07-29T00:01:49;19.00;99.90
59303;DHT22;45074;52.764;6.896;2023-07-29T00:04:16;19.30;99.90
59303;DHT22;45074;52.764;6.896;2023-07-29T00:06:42;19.80;99.90
59303;DHT22;45074;52.764;6.896;2023-07-29T00:09:08;18.80;99.90
59303;DHT22;45074;52.764;6.896;2023-07-29T00:11:33;19.30;99.90
59303;DHT22;45074;52.764;6.896;2023-07-29T00:14:01;19.80;99.90
59303;DHT22;45074;52.764;6.896;2023-07-29T00:16:27;19.20;99.90
59303;DHT22;45074;52.764;6.896;2023-07-29T00:18:52;19.00;99.90
59303;DHT22;45074;52.764;6.896;2023-07-29T00:21:18;19.20;99.90
59303;DHT22;45074;52.764;6.896;2023-07-29T00:23:45;19.70;99.90
59303;DHT22;45074;52.764;6.896;2023-07-29T00:26:10;19.50;99.90
59303;DHT22;45074;52.764;6.896;2023-07-29T00:28:36;18.80;99.90
59303;DHT22;45074;52.764;6.896;2023-07-29T00:31:02;18.70;99.90
59303;DHT22;45074;52.764;6.896;2023-07-29T00:33:27;18.90;99.90
59303;DHT22;45074;52.764;6.896;2023-07-29T00:35:53;18.60;99.90
59303;DHT22;45074;52.764;6.896;2023-07-29T00:38:19;18.00;99.90
59303;DHT22;45074;52.764;6.896;2023-07-29T00:43:10;19.60;99.90
59303;DHT22;45074;52.764;6.896;2023-07-29T00:45:36;19.40;99.90
59303;DHT22;45074;52.764;6.896;2023-07-29T00:48:02;18.40;99.90
59303;DHT22;45074;52.764;6.896;2023-07-29T00:50:29;19.10;99.90
59303;DHT22;45074;52.764;6.896;2023-07-29T00:52:56;18.60;99.90
59303;DHT22;45074;52.764;6.896;2023-07-29T00:55:22;19.40;99.90
59303;DHT22;45074;52.764;6.896;2023-07-29T00:57:48;18.10;99.90
59303;DHT22;45074;52.764;6.896;2023-07-29T01:00:17;19.10;99.90
59303;DHT22;45074;52.764;6.896;2023-07-29T01:05:12;19.00;99.90
59303;DHT22;45074;52.764;6.896;2023-07-29T01:10:10;19.00;99.90
59303;DHT22;45074;52.764;6.896;2023-07-29T01:12:56;19.00;99.90
59303;DHT22;45074;52.764;6.896;2023-07-29T01:15:36;18.60;99.90
59303;DHT22;45074;52.764;6.896;2023-07-29T01:18:11;19.40;99.90
59303;DHT22;45074;52.764;6.896;2023-07-29T01:20:41;18.90;99.90
59303;DHT22;45074;52.764;6.896;2023-07-29T01:48:07;18.80;99.90
59303;DHT22;45074;52.764;6.896;2023-07-29T01:50:34;18.00;99.90
59303;DHT22;45074;52.764;6.896;2023-07-29T01:52:59;18.50;99.90
59303;DHT22;45074;52.764;6.896;2023-07-29T01:55:25;18.40;99.90
59303;DHT22;45074;52.764;6.896;2023-07-29T01:57:51;19.10;99.90
59303;DHT22;45074;52.764;6.896;2023-07-29T02:00:19;18.30;99.90
59303;DHT22;45074;52.764;6.896;2023-07-29T02:02:45;18.80;99.90
59303;DHT22;45074;52.764;6.896;2023-07-29T02:05:11;18.80;99.90
59303;DHT22;45074;52.764;6.896;2023-07-29T02:07:36;18.60;99.90
59303;DHT22;45074;52.764;6.896;2023-07-29T02:10:02;18.80;99.90
59303;DHT22;45074;52.764;6.896;2023-07-29T02:12:28;18.40;99.90
59303;DHT22;45074;52.764;6.896;2023-07-29T02:14:53;19.20;99.90
59303;DHT22;45074;52.764;6.896;2023-07-29T02:17:19;18.60;99.90
59303;DHT22;45074;52.764;6.896;2023-07-29T02:19:45;18.70;99.90
59303;DHT22;45074;52.764;6.896;2023-07-29T02:22:13;18.60;99.90
59303;DHT22;45074;52.764;6.896;2023-07-29T02:24:39;18.60;99.90
59303;DHT22;45074;52.764;6.896;2023-07-29T02:27:05;18.40;99.90
59303;DHT22;45074;52.764;6.896;2023-07-29T02:29:31;18.40;99.90
59303;DHT22;45074;52.764;6.896;2023-07-29T02:31:59;18.50;99.90
59303;DHT22;45074;52.764;6.896;2023-07-29T02:34:24;20.00;99.90
59303;DHT22;45074;52.764;6.896;2023-07-29T02:36:50;18.50;99.90
59303;DHT22;45074;52.764;6.896;2023-07-29T02:39:16;18.50;99.90
59303;DHT22;45074;52.764;6.896;2023-07-29T02:41:41;19.30;99.90
59303;DHT22;45074;52.764;6.896;2023-07-29T02:44:07;18.50;99.90
59303;DHT22;45074;52.764;6.896;2023-07-29T02:46:33;19.40;99.90
59303;DHT22;45074;52.764;6.896;2023-07-29T02:48:58;18.50;99.90
59303;DHT22;45074;52.764;6.896;2023-07-29T02:51:24;18.90;99.90
59303;DHT22;45074;52.764;6.896;2023-07-29T02:53:50;19.00;99.90
59303;DHT22;45074;52.764;6.896;2023-07-29T02:56:15;18.60;99.90
59303;DHT22;45074;52.764;6.896;2023-07-29T02:58:41;18.10;99.90
59303;DHT22;45074;52.764;6.896;2023-07-29T03:01:07;18.40;99.90
59303;DHT22;45074;52.764;6.896;2023-07-29T03:03:33;18.30;99.90
59303;DHT22;45074;52.764;6.896;2023-07-29T03:06:04;18.50;99.90
59303;DHT22;45074;52.764;6.896;2023-07-29T03:08:29;18.30;99.90
59303;DHT22;45074;52.764;6.896;2023-07-29T03:10:56;18.30;99.90
59303;DHT22;45074;52.764;6.896;2023-07-29T03:13:22;18.10;99.90
59303;DHT22;45074;52.764;6.896;2023-07-29T03:15:48;18.00;99.90
59303;DHT22;45074;52.764;6.896;2023-07-29T03:18:14;17.90;99.90
59303;DHT22;45074;52.764;6.896;2023-07-29T03:23:06;17.80;99.90
59303;DHT22;45074;52.764;6.896;2023-07-29T03:28:00;17.70;99.90
59303;DHT22;45074;52.764;6.896;2023-07-29T03:32:52;17.60;99.90
59303;DHT22;45074;52.764;6.896;2023-07-29T03:37:44;18.00;99.90
59303;DHT22;45074;52.764;6.896;2023-07-29T03:40:10;17.50;99.90
59303;DHT22;45074;52.764;6.896;2023-07-29T03:42:36;17.70;99.90
59303;DHT22;45074;52.764;6.896;2023-07-29T03:45:01;18.10;99.90
59303;DHT22;45074;52.764;6.896;2023-07-29T03:47:27;17.70;99.90
59303;DHT22;45074;52.764;6.896;2023-07-29T03:49:53;17.60;99.90
59303;DHT22;45074;52.764;6.896;2023-07-29T03:54:44;17.80;99.90
59303;DHT22;45074;52.764;6.896;2023-07-29T04:02:02;17.60;99.90
59303;DHT22;45074;52.764;6.896;2023-07-29T04:19:04;19.10;99.90
59303;DHT22;45074;52.764;6.896;2023-07-29T04:26:21;17.40;99.90
59303;DHT22;45074;52.764;6.896;2023-07-29T04:28:47;17.80;99.90
59303;DHT22;45074;52.764;6.896;2023-07-29T04:31:12;17.70;99.90
59303;DHT22;45074;52.764;6.896;2023-07-29T04:33:38;17.70;99.90
59303;DHT22;45074;52.764;6.896;2023-07-29T04:36:04;17.70;99.90
59303;DHT22;45074;52.764;6.896;2023-07-29T04:38:32;17.80;99.90
59303;DHT22;45074;52.764;6.896;2023-07-29T04:41:00;17.70;99.90
59303;DHT22;45074;52.764;6.896;2023-07-29T04:43:31;17.70;99.90
59303;DHT22;45074;52.764;6.896;2023-07-29T04:45:57;17.90;99.90
59303;DHT22;45074;52.764;6.896;2023-07-29T04:48:23;18.10;99.90
59303;DHT22;45074;52.764;6.896;2023-07-29T04:50:49;17.60;99.90
59303;DHT22;45074;52.764;6.896;2023-07-29T04:53:14;19.60;99.90
59303;DHT22;45074;52.764;6.896;2023-07-29T04:55:43;17.50;99.90
59303;DHT22;45074;52.764;6.896;2023-07-29T04:58:09;17.70;99.90
59303;DHT22;45074;52.764;6.896;2023-07-29T05:00:35;17.70;99.90
59303;DHT22;45074;52.764;6.896;2023-07-29T05:03:00;17.60;99.90
59303;DHT22;45074;52.764;6.896;2023-07-29T05:05:27;18.60;99.90
59303;DHT22;45074;52.764;6.896;2023-07-29T05:10:18;17.70;99.90
59303;DHT22;45074;52.764;6.896;2023-07-29T05:12:44;18.60;99.90
59303;DHT22;45074;52.764;6.896;2023-07-29T05:15:10;17.70;99.90
59303;DHT22;45074;52.764;6.896;2023-07-29T05:17:36;16.80;99.90
59303;DHT22;45074;52.764;6.896;2023-07-29T05:20:02;17.80;99.90
59303;DHT22;45074;52.764;6.896;2023-07-29T05:22:28;17.70;99.90
59303;DHT22;45074;52.764;6.896;2023-07-29T05:24:53;18.50;99.90
59303;DHT22;45074;52.764;6.896;2023-07-29T05:27:19;17.00;99.90
59303;DHT22;45074;52.764;6.896;2023-07-29T05:29:44;17.60;99.90
59303;DHT22;45074;52.764;6.896;2023-07-29T05:32:10;17.90;99.90
59303;DHT22;45074;52.764;6.896;2023-07-29T05:34:36;19.20;99.90
59303;DHT22;45074;52.764;6.896;2023-07-29T05:37:01;18.10;99.90
59303;DHT22;45074;52.764;6.896;2023-07-29T05:39:27;18.00;99.90
59303;DHT22;45074;52.764;6.896;2023-07-29T05:41:52;19.30;99.90
59303;DHT22;45074;52.764;6.896;2023-07-29T05:44:18;17.90;99.90
59303;DHT22;45074;52.764;6.896;2023-07-29T05:46:43;18.00;99.90
59303;DHT22;45074;52.764;6.896;2023-07-29T05:49:09;17.50;99.90
59303;DHT22;45074;52.764;6.896;2023-07-29T05:51:35;20.00;99.90
59303;DHT22;45074;52.764;6.896;2023-07-29T05:54:00;18.60;99.90
59303;DHT22;45074;52.764;6.896;2023-07-29T05:56:26;18.10;99.90
59303;DHT22;45074;52.764;6.896;2023-07-29T05:58:52;18.20;99.90
59303;DHT22;45074;52.764;6.896;2023-07-29T06:01:17;18.00;99.90
59303;DHT22;45074;52.764;6.896;2023-07-29T06:03:46;18.10;99.90
59303;DHT22;45074;52.764;6.896;2023-07-29T06:06:12;18.30;99.90
59303;DHT22;45074;52.764;6.896;2023-07-29T06:08:38;18.50;99.90
59303;DHT22;45074;52.764;6.896;2023-07-29T06:11:03;18.70;99.90
59303;DHT22;45074;52.764;6.896;2023-07-29T06:13:32;19.20;99.90
59303;DHT22;45074;52.764;6.896;2023-07-29T06:45:12;18.70;99.90
59303;DHT22;45074;52.764;6.896;2023-07-29T06:47:38;18.90;99.90
59303;DHT22;45074;52.764;6.896;2023-07-29T06:54:56;18.70;99.90
59303;DHT22;45074;52.764;6.896;2023-07-29T06:57:22;18.60;99.90
59303;DHT22;45074;52.764;6.896;2023-07-29T06:59:47;18.70;99.90
59303;DHT22;45074;52.764;6.896;2023-07-29T07:02:13;18.70;99.90
59303;DHT22;45074;52.764;6.896;2023-07-29T07:04:38;18.70;99.90
59303;DHT22;45074;52.764;6.896;2023-07-29T07:07:04;19.00;99.90
59303;DHT22;45074;52.764;6.896;2023-07-29T07:09:30;19.10;99.90
59303;DHT22;45074;52.764;6.896;2023-07-29T07:11:56;18.90;99.90
59303;DHT22;45074;52.764;6.896;2023-07-29T07:14:21;19.30;99.90
59303;DHT22;45074;52.764;6.896;2023-07-29T07:16:47;19.30;99.90
59303;DHT22;45074;52.764;6.896;2023-07-29T07:48:29;20.00;99.90
59303;DHT22;45074;52.764;6.896;2023-07-29T07:50:55;19.30;99.90
59303;DHT22;45074;52.764;6.896;2023-07-29T08:22:33;20.40;99.90
59303;DHT22;45074;52.764;6.896;2023-07-29T08:24:59;20.30;99.90
59303;DHT22;45074;52.764;6.896;2023-07-29T08:29:50;20.30;99.90
59303;DHT22;45074;52.764;6.896;2023-07-29T08:32:16;21.40;99.90
59303;DHT22;45074;52.764;6.896;2023-07-29T08:34:42;20.00;99.90
59303;DHT22;45074;52.764;6.896;2023-07-29T08:37:07;20.80;99.90
59303;DHT22;45074;52.764;6.896;2023-07-29T08:39:33;20.10;99.90
59303;DHT22;45074;52.764;6.896;2023-07-29T08:42:03;20.40;99.90
59303;DHT22;45074;52.764;6.896;2023-07-29T08:44:38;20.20;99.90
59303;DHT22;45074;52.764;6.896;2023-07-29T08:47:05;20.40;99.90
59303;DHT22;45074;52.764;6.896;2023-07-29T08:49:32;20.40;99.90
59303;DHT22;45074;52.764;6.896;2023-07-29T08:51:58;20.80;99.90
59303;DHT22;45074;52.764;6.896;2023-07-29T08:54:25;20.60;99.90
59303;DHT22;45074;52.764;6.896;2023-07-29T08:56:50;20.80;99.90
59303;DHT22;45074;52.764;6.896;2023-07-29T09:18:50;21.50;99.90
59303;DHT22;45074;52.764;6.896;2023-07-29T09:21:23;21.60;99.90
59303;DHT22;45074;52.764;6.896;2023-07-29T09:23:50;21.70;99.90
59303;DHT22;45074;52.764;6.896;2023-07-29T09:26:26;21.70;99.90
59303;DHT22;45074;52.764;6.896;2023-07-29T09:28:53;22.00;99.90
59303;DHT22;45074;52.764;6.896;2023-07-29T09:31:21;22.00;99.90
59303;DHT22;45074;52.764;6.896;2023-07-29T09:43:33;22.00;99.90
59303;DHT22;45074;52.764;6.896;2023-07-29T09:46:00;22.20;99.90
59303;DHT22;45074;52.764;6.896;2023-07-29T09:50:54;22.70;99.90
59303;DHT22;45074;52.764;6.896;2023-07-29T09:55:47;22.70;99.90
59303;DHT22;45074;52.764;6.896;2023-07-29T09:58:26;21.20;99.90
59303;DHT22;45074;52.764;6.896;2023-07-29T10:03:21;22.60;99.90
59303;DHT22;45074;52.764;6.896;2023-07-29T10:10:43;22.70;99.90
59303;DHT22;45074;52.764;6.896;2023-07-29T10:20:30;23.20;99.90
59303;DHT22;45074;52.764;6.896;2023-07-29T10:22:59;23.20;99.90
59303;DHT22;45074;52.764;6.896;2023-07-29T10:25:34;23.00;99.90
59303;DHT22;45074;52.764;6.896;2023-07-29T10:28:07;21.90;99.90
59303;DHT22;45074;52.764;6.896;2023-07-29T10:33:02;23.00;99.90
59303;DHT22;45074;52.764;6.896;2023-07-29T10:35:29;24.00;99.90
59303;DHT22;45074;52.764;6.896;2023-07-29T10:43:10;23.00;99.90
59303;DHT22;45074;52.764;6.896;2023-07-29T10:45:40;23.00;99.90
59303;DHT22;45074;52.764;6.896;2023-07-29T10:48:10;23.30;99.90
59303;DHT22;45074;52.764;6.896;2023-07-29T11:05:49;23.70;99.90
59303;DHT22;45074;52.764;6.896;2023-07-29T11:18:20;23.20;99.90
59303;DHT22;45074;52.764;6.896;2023-07-29T11:50:06;23.70;99.90
59303;DHT22;45074;52.764;6.896;2023-07-29T11:52:36;23.60;99.90
59303;DHT22;45074;52.764;6.896;2023-07-29T11:55:04;23.50;99.90
59303;DHT22;45074;52.764;6.896;2023-07-29T11:57:32;23.20;99.90
59303;DHT22;45074;52.764;6.896;2023-07-29T12:09:45;23.30;99.90
59303;DHT22;45074;52.764;6.896;2023-07-29T12:17:05;23.70;99.90
59303;DHT22;45074;52.764;6.896;2023-07-29T12:19:35;24.00;99.90
59303;DHT22;45074;52.764;6.896;2023-07-29T14:29:00;21.30;99.90
59303;DHT22;45074;52.764;6.896;2023-07-29T14:53:20;22.80;99.90
59303;DHT22;45074;52.764;6.896;2023-07-29T15:03:04;22.20;99.90
59303;DHT22;45074;52.764;6.896;2023-07-29T15:05:29;22.40;99.90
59303;DHT22;45074;52.764;6.896;2023-07-29T15:27:28;22.00;99.90
59303;DHT22;45074;52.764;6.896;2023-07-29T15:44:30;23.00;99.90
59303;DHT22;45074;52.764;6.896;2023-07-29T15:46:56;23.00;99.90
59303;DHT22;45074;52.764;6.896;2023-07-29T15:49:22;23.40;99.90
59303;DHT22;45074;52.764;6.896;2023-07-29T15:51:48;23.30;99.90
59303;DHT22;45074;52.764;6.896;2023-07-29T16:06:26;23.30;99.90
59303;DHT22;45074;52.764;6.896;2023-07-29T16:23:33;23.30;99.90
59303;DHT22;45074;52.764;6.896;2023-07-29T17:00:12;22.50;99.90
59303;DHT22;45074;52.764;6.896;2023-07-29T17:22:10;22.20;99.90
59303;DHT22;45074;52.764;6.896;2023-07-29T17:24:36;22.40;99.90
59303;DHT22;45074;52.764;6.896;2023-07-29T17:27:01;23.10;99.90
59303;DHT22;45074;52.764;6.896;2023-07-29T17:29:27;22.40;99.90
59303;DHT22;45074;52.764;6.896;2023-07-29T17:31:53;22.40;99.90
59303;DHT22;45074;52.764;6.896;2023-07-29T17:34:18;22.20;99.90
59303;DHT22;45074;52.764;6.896;2023-07-29T17:36:46;22.30;99.90
59303;DHT22;45074;52.764;6.896;2023-07-29T17:39:11;23.90;99.90
59303;DHT22;45074;52.764;6.896;2023-07-29T17:41:37;23.20;99.90
59303;DHT22;45074;52.764;6.896;2023-07-29T17:44:03;22.30;99.90
59303;DHT22;45074;52.764;6.896;2023-07-29T17:46:29;22.10;99.90
59303;DHT22;45074;52.764;6.896;2023-07-29T17:48:55;22.30;99.90
59303;DHT22;45074;52.764;6.896;2023-07-29T17:51:20;22.80;99.90
59303;DHT22;45074;52.764;6.896;2023-07-29T17:53:46;23.40;99.90
59303;DHT22;45074;52.764;6.896;2023-07-29T17:56:11;22.00;99.90
59303;DHT22;45074;52.764;6.896;2023-07-29T17:58:37;22.00;99.90
59303;DHT22;45074;52.764;6.896;2023-07-29T18:01:03;22.10;99.90
59303;DHT22;45074;52.764;6.896;2023-07-29T18:03:29;22.00;99.90
59303;DHT22;45074;52.764;6.896;2023-07-29T18:05:55;22.10;99.90
59303;DHT22;45074;52.764;6.896;2023-07-29T18:08:21;23.50;99.90
59303;DHT22;45074;52.764;6.896;2023-07-29T18:10:47;21.80;99.90
59303;DHT22;45074;52.764;6.896;2023-07-29T18:13:13;22.00;99.90
59303;DHT22;45074;52.764;6.896;2023-07-29T18:15:38;22.20;99.90
59303;DHT22;45074;52.764;6.896;2023-07-29T18:18:04;22.20;99.90
59303;DHT22;45074;52.764;6.896;2023-07-29T18:20:30;21.90;99.90
59303;DHT22;45074;52.764;6.896;2023-07-29T18:22:56;21.90;99.90
59303;DHT22;45074;52.764;6.896;2023-07-29T18:25:27;22.00;99.90
59303;DHT22;45074;52.764;6.896;2023-07-29T18:27:53;21.80;99.90
59303;DHT22;45074;52.764;6.896;2023-07-29T18:30:19;21.80;99.90
59303;DHT22;45074;52.764;6.896;2023-07-29T18:32:45;22.20;99.90
59303;DHT22;45074;52.764;6.896;2023-07-29T18:35:11;22.00;99.90
59303;DHT22;45074;52.764;6.896;2023-07-29T18:37:44;21.80;99.90
59303;DHT22;45074;52.764;6.896;2023-07-29T18:40:10;22.00;99.90
59303;DHT22;45074;52.764;6.896;2023-07-29T18:42:36;21.80;99.90
59303;DHT22;45074;52.764;6.896;2023-07-29T18:45:02;21.70;99.90
59303;DHT22;45074;52.764;6.896;2023-07-29T18:47:27;21.70;99.90
59303;DHT22;45074;52.764;6.896;2023-07-29T18:49:53;22.90;99.90
59303;DHT22;45074;52.764;6.896;2023-07-29T18:52:19;21.60;99.90
59303;DHT22;45074;52.764;6.896;2023-07-29T18:54:44;21.80;99.90
59303;DHT22;45074;52.764;6.896;2023-07-29T18:57:12;21.40;99.90
59303;DHT22;45074;52.764;6.896;2023-07-29T18:59:38;21.40;99.90
59303;DHT22;45074;52.764;6.896;2023-07-29T19:02:04;22.50;99.90
59303;DHT22;45074;52.764;6.896;2023-07-29T19:38:38;20.00;99.90
59303;DHT22;45074;52.764;6.896;2023-07-29T19:45:58;19.90;99.90
59303;DHT22;45074;52.764;6.896;2023-07-29T19:55:47;19.80;99.90
59303;DHT22;45074;52.764;6.896;2023-07-29T20:00:48;19.70;99.90
59303;DHT22;45074;52.764;6.896;2023-07-29T20:05:40;19.60;99.90
59303;DHT22;45074;52.764;6.896;2023-07-29T20:12:59;19.60;99.90
59303;DHT22;45074;52.764;6.896;2023-07-29T20:15:25;19.20;99.90
59303;DHT22;45074;52.764;6.896;2023-07-29T20:17:51;19.50;99.90
59303;DHT22;45074;52.764;6.896;2023-07-29T20:20:17;20.20;99.90
59303;DHT22;45074;52.764;6.896;2023-07-29T20:22:42;19.50;99.90
59303;DHT22;45074;52.764;6.896;2023-07-29T20:25:08;20.70;99.90
59303;DHT22;45074;52.764;6.896;2023-07-29T20:27:34;19.40;99.90
59303;DHT22;45074;52.764;6.896;2023-07-29T20:29:59;19.40;99.90
59303;DHT22;45074;52.764;6.896;2023-07-29T20:32:26;19.40;99.90
59303;DHT22;45074;52.764;6.896;2023-07-29T20:34:52;19.70;99.90
59303;DHT22;45074;52.764;6.896;2023-07-29T20:37:18;19.50;99.90
59303;DHT22;45074;52.764;6.896;2023-07-29T20:39:44;19.60;99.90
59303;DHT22;45074;52.764;6.896;2023-07-29T20:42:09;20.60;99.90
59303;DHT22;45074;52.764;6.896;2023-07-29T20:44:35;19.30;99.90
59303;DHT22;45074;52.764;6.896;2023-07-29T21:08:56;18.80;99.90
59303;DHT22;45074;52.764;6.896;2023-07-29T21:11:22;19.00;99.90
59303;DHT22;45074;52.764;6.896;2023-07-29T21:13:47;18.80;99.90
59303;DHT22;45074;52.764;6.896;2023-07-29T21:26:01;18.50;99.90
59303;DHT22;45074;52.764;6.896;2023-07-29T21:28:27;18.60;99.90
59303;DHT22;45074;52.764;6.896;2023-07-29T21:33:21;18.20;99.90
59303;DHT22;45074;52.764;6.896;2023-07-29T22:22:03;17.40;99.90
59303;DHT22;45074;52.764;6.896;2023-07-29T23:15:37;16.60;99.90
59303;DHT22;45074;52.764;6.896;2023-07-29T23:18:04;16.50;99.90
59303;DHT22;45074;52.764;6.896;2023-07-29T23:20:33;16.50;99.90
59303;DHT22;45074;52.764;6.896;2023-07-29T23:23:03;16.40;99.90
59303;DHT22;45074;52.764;6.896;2023-07-29T23:25:30;16.40;99.90
59303;DHT22;45074;52.764;6.896;2023-07-29T23:30:22;16.50;99.90
59303;DHT22;45074;52.764;6.896;2023-07-29T23:32:48;16.50;99.90
59303;DHT22;45074;52.764;6.896;2023-07-29T23:35:14;17.20;99.90
59303;DHT22;45074;52.764;6.896;2023-07-29T23:37:39;16.40;99.90
59303;DHT22;45074;52.764;6.896;2023-07-29T23:40:06;16.30;99.90
59303;DHT22;45074;52.764;6.896;2023-07-29T23:42:32;16.30;99.90
59303;DHT22;45074;52.764;6.896;2023-07-29T23:44:58;16.50;99.90
59303;DHT22;45074;52.764;6.896;2023-07-29T23:47:23;16.20;99.90
59303;DHT22;45074;52.764;6.896;2023-07-29T23:49:50;17.40;99.90
59303;DHT22;45074;52.764;6.896;2023-07-29T23:52:15;16.30;99.90
59303;DHT22;45074;52.764;6.896;2023-07-29T23:54:41;15.80;99.90
59303;DHT22;45074;52.764;6.896;2023-07-29T23:57:07;16.00;99.90
59303;DHT22;45074;52.764;6.896;2023-07-29T23:59:32;15.70;99.90
